createdAt,value
2018-12-30T00:00:08.141Z,84.40
2018-12-30T00:02:36.526Z,85.30
2018-12-30T00:05:05.338Z,85.50
2018-12-30T00:07:34.143Z,86.30
2018-12-30T00:10:02.544Z,87.20
2018-12-30T00:12:30.906Z,87.80
2018-12-30T00:14:59.306Z,86.70
2018-12-30T00:17:27.689Z,87.30
2018-12-30T00:19:56.490Z,87.90
2018-12-30T00:22:24.861Z,87.30
2018-12-30T00:24:53.410Z,90.00
2018-12-30T00:27:21.774Z,87.60
2018-12-30T00:29:50.177Z,87.20
2018-12-30T00:32:18.556Z,89.10
2018-12-30T00:34:46.952Z,89.40
2018-12-30T00:37:15.335Z,89.60
2018-12-30T00:39:43.741Z,89.20
2018-12-30T00:42:12.132Z,88.20
2018-12-30T00:44:40.530Z,88.20
2018-12-30T00:47:09.104Z,89.30
2018-12-30T00:49:37.541Z,90.40
2018-12-30T00:52:05.910Z,89.90
2018-12-30T00:54:34.366Z,88.40
2018-12-30T00:57:02.774Z,89.10
2018-12-30T00:59:31.154Z,88.90
2018-12-30T01:01:59.868Z,88.20
2018-12-30T01:04:28.233Z,90.00
2018-12-30T01:06:56.641Z,89.10
2018-12-30T01:09:25.024Z,88.80
2018-12-30T01:11:53.450Z,87.60
2018-12-30T01:14:21.895Z,88.30
2018-12-30T01:16:50.511Z,89.40
2018-12-30T01:19:18.889Z,89.30
2018-12-30T01:21:47.287Z,88.90
2018-12-30T01:24:15.758Z,90.10
2018-12-30T01:26:44.168Z,88.50
2018-12-30T01:29:12.535Z,89.00
2018-12-30T01:31:40.940Z,90.00
2018-12-30T01:34:09.340Z,90.20
2018-12-30T01:36:37.743Z,90.00
2018-12-30T01:39:07.051Z,90.30
2018-12-30T01:41:35.463Z,90.50
2018-12-30T01:44:04.139Z,90.80
2018-12-30T01:46:32.540Z,90.60
2018-12-30T01:49:00.923Z,90.20
2018-12-30T01:51:32.990Z,90.20
2018-12-30T01:53:59.346Z,90.30
2018-12-30T01:56:27.957Z,90.00
2018-12-30T01:58:56.347Z,90.10
2018-12-30T02:01:24.759Z,90.70
2018-12-30T02:03:53.135Z,90.20
2018-12-30T02:06:21.514Z,90.40
2018-12-30T02:08:49.915Z,90.90
2018-12-30T02:11:18.291Z,90.70
2018-12-30T02:13:46.703Z,90.90
2018-12-30T02:16:15.070Z,91.20
2018-12-30T02:18:43.479Z,90.10
2018-12-30T02:21:11.859Z,90.80
2018-12-30T02:23:40.559Z,91.10
2018-12-30T02:26:08.931Z,91.40
2018-12-30T02:28:37.335Z,90.40
2018-12-30T02:31:05.716Z,90.80
2018-12-30T02:33:34.119Z,90.40
2018-12-30T02:36:02.811Z,90.90
2018-12-30T02:38:31.421Z,90.70
2018-12-30T02:40:59.795Z,90.50
2018-12-30T02:43:28.200Z,91.00
2018-12-30T02:45:56.575Z,91.20
2018-12-30T02:48:25.181Z,90.60
2018-12-30T02:50:53.551Z,91.40
2018-12-30T02:53:22.017Z,91.30
2018-12-30T02:55:50.595Z,91.20
2018-12-30T02:58:19.097Z,91.50
2018-12-30T03:00:47.472Z,91.30
2018-12-30T03:03:15.881Z,91.10
2018-12-30T03:05:44.265Z,91.80
2018-12-30T03:08:12.660Z,91.30
2018-12-30T03:10:41.032Z,91.20
2018-12-30T03:13:09.549Z,91.70
2018-12-30T03:15:37.931Z,91.80
2018-12-30T03:18:06.373Z,91.80
2018-12-30T03:20:34.784Z,91.60
2018-12-30T03:23:03.151Z,91.40
2018-12-30T03:25:31.851Z,91.30
2018-12-30T03:28:00.225Z,91.80
2018-12-30T03:30:28.641Z,91.50
2018-12-30T03:32:57.018Z,91.20
2018-12-30T03:35:25.442Z,91.40
2018-12-30T03:37:53.825Z,91.40
2018-12-30T03:40:22.238Z,92.00
2018-12-30T03:42:50.620Z,92.00
2018-12-30T03:45:19.024Z,92.00
2018-12-30T03:47:47.426Z,92.00
2018-12-30T03:50:15.835Z,92.50
2018-12-30T03:52:44.211Z,92.20
2018-12-30T03:55:12.616Z,92.30
2018-12-30T03:57:40.992Z,92.00
2018-12-30T04:00:09.392Z,92.60
2018-12-30T04:02:37.770Z,91.90
2018-12-30T04:05:06.172Z,92.80
2018-12-30T04:07:34.568Z,93.20
2018-12-30T04:10:02.980Z,92.40
2018-12-30T04:12:31.418Z,92.60
2018-12-30T04:14:59.828Z,92.90
2018-12-30T04:17:28.202Z,92.80
2018-12-30T04:19:56.610Z,93.50
2018-12-30T04:22:24.982Z,93.60
2018-12-30T04:24:53.403Z,93.20
2018-12-30T04:27:23.164Z,93.20
2018-12-30T04:29:51.571Z,93.00
2018-12-30T04:32:19.942Z,93.20
2018-12-30T04:34:48.321Z,93.30
2018-12-30T04:37:16.738Z,93.50
2018-12-30T04:39:45.104Z,93.30
2018-12-30T04:42:13.503Z,93.70
2018-12-30T04:44:41.879Z,94.50
2018-12-30T04:47:10.284Z,94.00
2018-12-30T04:49:38.678Z,93.90
2018-12-30T04:52:07.088Z,94.00
2018-12-30T04:54:35.456Z,94.00
2018-12-30T04:57:03.864Z,94.10
2018-12-30T04:59:32.233Z,94.30
2018-12-30T05:02:00.636Z,94.20
2018-12-30T05:04:29.007Z,93.90
2018-12-30T05:06:57.415Z,94.10
2018-12-30T05:09:25.788Z,94.50
2018-12-30T05:11:54.182Z,94.80
2018-12-30T05:14:22.552Z,94.50
2018-12-30T05:16:50.959Z,94.70
2018-12-30T05:19:19.332Z,94.80
2018-12-30T05:21:47.737Z,94.90
2018-12-30T05:24:16.121Z,95.00
2018-12-30T05:26:44.533Z,94.70
2018-12-30T05:29:12.903Z,94.90
2018-12-30T05:31:41.309Z,94.80
2018-12-30T05:34:09.683Z,95.00
2018-12-30T05:36:38.087Z,95.10
2018-12-30T05:39:06.928Z,95.30
2018-12-30T05:41:35.332Z,95.30
2018-12-30T05:44:03.695Z,95.20
2018-12-30T05:46:32.079Z,95.20
2018-12-30T05:49:00.491Z,95.30
2018-12-30T05:51:28.875Z,95.30
2018-12-30T05:53:57.227Z,95.40
2018-12-30T05:56:25.599Z,95.50
2018-12-30T05:58:54.006Z,95.50
2018-12-30T06:01:22.374Z,95.70
2018-12-30T06:03:50.698Z,95.60
2018-12-30T06:06:19.074Z,95.70
2018-12-30T06:08:47.470Z,95.50
2018-12-30T06:11:15.846Z,95.50
2018-12-30T06:13:44.165Z,95.20
2018-12-30T06:16:12.542Z,94.90
2018-12-30T06:18:40.942Z,94.50
2018-12-30T06:21:09.310Z,94.60
2018-12-30T06:23:37.720Z,94.60
2018-12-30T06:26:06.092Z,94.80
2018-12-30T06:28:34.490Z,94.80
2018-12-30T06:31:02.879Z,95.10
2018-12-30T06:33:31.290Z,95.30
2018-12-30T06:35:59.660Z,95.30
2018-12-30T06:38:28.072Z,95.40
2018-12-30T06:40:56.438Z,95.00
2018-12-30T06:43:24.844Z,95.00
2018-12-30T06:45:53.254Z,95.00
2018-12-30T06:48:21.660Z,95.00
2018-12-30T06:50:50.120Z,95.00
2018-12-30T06:53:18.577Z,94.80
2018-12-30T06:55:46.954Z,94.60
2018-12-30T06:58:15.372Z,94.10
2018-12-30T07:00:43.740Z,94.20
2018-12-30T07:03:12.250Z,94.80
2018-12-30T07:05:40.630Z,94.50
2018-12-30T07:08:08.930Z,94.60
2018-12-30T07:10:37.392Z,94.60
2018-12-30T07:13:05.778Z,94.70
2018-12-30T07:15:34.210Z,94.70
2018-12-30T07:18:02.687Z,94.90
2018-12-30T07:20:31.086Z,94.90
2018-12-30T07:23:05.734Z,94.90
2018-12-30T07:25:29.513Z,95.00
2018-12-30T07:27:57.884Z,94.90
2018-12-30T07:30:26.292Z,95.10
2018-12-30T07:32:54.674Z,95.00
2018-12-30T07:35:23.084Z,94.70
2018-12-30T07:37:51.457Z,94.60
2018-12-30T07:40:19.867Z,94.40
2018-12-30T07:42:48.222Z,94.10
2018-12-30T07:45:16.622Z,94.10
2018-12-30T07:47:45.006Z,94.10
2018-12-30T07:50:13.335Z,94.20
2018-12-30T07:52:41.703Z,93.80
2018-12-30T07:55:10.108Z,93.80
2018-12-30T07:57:38.489Z,93.80
2018-12-30T08:00:08.365Z,93.50
2018-12-30T08:02:36.729Z,93.80
2018-12-30T08:05:05.308Z,93.60
2018-12-30T08:07:33.676Z,93.50
2018-12-30T08:10:02.059Z,93.40
2018-12-30T08:12:30.466Z,93.40
2018-12-30T08:14:58.867Z,93.20
2018-12-30T08:17:27.485Z,93.30
2018-12-30T08:19:55.848Z,93.10
2018-12-30T08:22:24.259Z,93.50
2018-12-30T08:24:52.815Z,93.30
2018-12-30T08:27:21.227Z,92.90
2018-12-30T08:29:49.624Z,92.60
2018-12-30T08:32:18.027Z,92.50
2018-12-30T08:34:46.419Z,92.30
2018-12-30T08:37:14.825Z,92.60
2018-12-30T08:39:43.231Z,92.60
2018-12-30T08:42:12.887Z,92.20
2018-12-30T08:44:41.269Z,92.10
2018-12-30T08:47:09.676Z,91.70
2018-12-30T08:49:38.071Z,91.50
2018-12-30T08:52:06.479Z,91.00
2018-12-30T08:54:34.861Z,90.00
2018-12-30T08:57:03.257Z,89.60
2018-12-30T08:59:31.663Z,90.00
2018-12-30T09:02:00.120Z,89.80
2018-12-30T09:04:28.635Z,89.80
2018-12-30T09:06:57.230Z,89.40
2018-12-30T09:09:25.580Z,88.40
2018-12-30T09:11:53.988Z,88.40
2018-12-30T09:14:22.363Z,88.30
2018-12-30T09:16:50.760Z,88.00
2018-12-30T09:19:19.131Z,87.90
2018-12-30T09:21:47.498Z,87.70
2018-12-30T09:24:15.911Z,86.90
2018-12-30T09:26:44.282Z,87.20
2018-12-30T09:29:12.772Z,85.50
2018-12-30T09:31:41.139Z,85.60
2018-12-30T09:34:09.546Z,85.40
2018-12-30T09:36:37.922Z,85.10
2018-12-30T09:39:07.099Z,85.70
2018-12-30T09:41:35.466Z,84.80
2018-12-30T09:44:03.872Z,85.90
2018-12-30T09:46:32.246Z,85.30
2018-12-30T09:49:00.662Z,84.50
2018-12-30T09:51:29.033Z,85.00
2018-12-30T09:53:57.445Z,84.70
2018-12-30T09:56:25.893Z,84.00
2018-12-30T09:58:54.306Z,84.00
2018-12-30T10:01:22.677Z,83.90
2018-12-30T10:03:51.076Z,83.60
2018-12-30T10:06:19.532Z,83.40
2018-12-30T10:08:47.974Z,84.60
2018-12-30T10:11:16.346Z,83.60
2018-12-30T10:13:44.754Z,82.90
2018-12-30T10:16:13.135Z,83.60
2018-12-30T10:18:41.530Z,83.30
2018-12-30T10:21:09.903Z,83.60
2018-12-30T10:23:38.405Z,84.30
2018-12-30T10:26:06.805Z,84.30
2018-12-30T10:28:35.211Z,84.00
2018-12-30T10:31:03.590Z,84.90
2018-12-30T10:33:31.999Z,83.80
2018-12-30T10:36:00.372Z,83.20
2018-12-30T10:38:28.775Z,83.00
2018-12-30T10:40:57.242Z,82.50
2018-12-30T10:43:25.542Z,81.40
2018-12-30T10:45:54.042Z,82.80
2018-12-30T10:48:22.431Z,82.30
2018-12-30T10:50:50.838Z,82.30
2018-12-30T10:53:19.209Z,82.00
2018-12-30T10:55:47.624Z,81.90
2018-12-30T10:58:16.003Z,82.70
2018-12-30T11:00:44.414Z,82.50
2018-12-30T11:03:12.787Z,82.00
2018-12-30T11:05:41.184Z,81.70
2018-12-30T11:08:09.554Z,82.20
2018-12-30T11:10:37.958Z,80.60
2018-12-30T11:13:06.261Z,81.30
2018-12-30T11:15:34.662Z,81.40
2018-12-30T11:18:02.954Z,81.00
2018-12-30T11:20:31.362Z,80.70
2018-12-30T11:22:59.739Z,81.30
2018-12-30T11:25:28.139Z,80.80
2018-12-30T11:27:56.536Z,80.80
2018-12-30T11:30:24.952Z,80.70
2018-12-30T11:32:53.318Z,80.80
2018-12-30T11:35:21.728Z,80.70
2018-12-30T11:37:50.150Z,80.50
2018-12-30T11:40:18.562Z,81.50
2018-12-30T11:42:47.016Z,80.90
2018-12-30T11:45:15.483Z,82.00
2018-12-30T11:47:43.816Z,81.30
2018-12-30T11:50:12.226Z,80.30
2018-12-30T11:52:40.598Z,80.30
2018-12-30T11:55:09.022Z,80.00
2018-12-30T11:57:37.419Z,80.40
2018-12-30T12:00:08.034Z,80.20
2018-12-30T12:02:36.541Z,80.50
2018-12-30T12:05:05.282Z,80.00
2018-12-30T12:07:33.686Z,79.70
2018-12-30T12:10:02.115Z,79.90
2018-12-30T12:12:30.463Z,79.60
2018-12-30T12:14:58.848Z,79.80
2018-12-30T12:17:27.264Z,79.80
2018-12-30T12:19:55.631Z,80.40
2018-12-30T12:22:24.044Z,80.70
2018-12-30T12:24:54.058Z,81.60
2018-12-30T12:27:22.479Z,82.50
2018-12-30T12:29:51.030Z,82.70
2018-12-30T12:32:19.432Z,82.60
2018-12-30T12:34:47.806Z,83.20
2018-12-30T12:37:16.212Z,82.70
2018-12-30T12:39:44.586Z,82.50
2018-12-30T12:42:15.604Z,83.70
2018-12-30T12:44:44.035Z,84.10
2018-12-30T12:47:12.438Z,84.30
2018-12-30T12:49:40.747Z,85.00
2018-12-30T12:52:09.150Z,85.80
2018-12-30T12:54:37.454Z,86.20
2018-12-30T12:57:05.874Z,84.40
2018-12-30T12:59:34.250Z,83.30
2018-12-30T13:02:02.647Z,83.60
2018-12-30T13:04:31.024Z,82.70
2018-12-30T13:06:59.419Z,82.30
2018-12-30T13:09:27.795Z,82.80
2018-12-30T13:11:56.231Z,82.70
2018-12-30T13:14:24.609Z,82.30
2018-12-30T13:16:53.040Z,82.60
2018-12-30T13:19:21.418Z,82.80
2018-12-30T13:21:49.786Z,83.50
2018-12-30T13:24:18.271Z,83.60
2018-12-30T13:26:46.710Z,83.60
2018-12-30T13:29:15.114Z,83.00
2018-12-30T13:31:43.490Z,83.50
2018-12-30T13:34:11.963Z,83.70
2018-12-30T13:36:40.355Z,83.90
2018-12-30T13:39:08.751Z,84.20
2018-12-30T13:41:37.123Z,84.20
2018-12-30T13:44:05.534Z,84.40
2018-12-30T13:46:33.902Z,84.50
2018-12-30T13:49:02.354Z,83.60
2018-12-30T13:51:30.723Z,83.50
2018-12-30T13:53:59.122Z,82.80
2018-12-30T13:56:27.501Z,82.80
2018-12-30T13:58:55.899Z,82.10
2018-12-30T14:01:24.203Z,81.80
2018-12-30T14:03:52.599Z,82.30
2018-12-30T14:06:23.543Z,82.30
2018-12-30T14:08:52.139Z,80.60
2018-12-30T14:11:20.515Z,81.90
2018-12-30T14:13:48.911Z,81.70
2018-12-30T14:16:17.283Z,82.10
2018-12-30T14:18:45.679Z,82.20
2018-12-30T14:21:14.051Z,82.70
2018-12-30T14:23:42.464Z,81.10
2018-12-30T14:26:10.860Z,81.50
2018-12-30T14:28:39.284Z,81.30
2018-12-30T14:31:07.659Z,80.80
2018-12-30T14:33:36.063Z,80.90
2018-12-30T14:36:04.443Z,80.70
2018-12-30T14:38:32.848Z,80.60
2018-12-30T14:41:01.214Z,81.10
2018-12-30T14:43:29.690Z,81.70
2018-12-30T14:45:58.096Z,81.70
2018-12-30T14:48:26.475Z,81.80
2018-12-30T14:50:54.945Z,81.90
2018-12-30T14:53:23.336Z,81.50
2018-12-30T14:55:51.742Z,82.10
2018-12-30T14:58:20.112Z,82.10
2018-12-30T15:00:48.529Z,81.70
2018-12-30T15:03:16.891Z,82.80
2018-12-30T15:05:45.296Z,82.80
2018-12-30T15:08:13.747Z,83.00
2018-12-30T15:10:42.246Z,83.30
2018-12-30T15:13:10.612Z,81.60
2018-12-30T15:15:39.007Z,82.60
2018-12-30T15:18:07.316Z,82.20
2018-12-30T15:20:35.723Z,82.00
2018-12-30T15:23:04.099Z,82.20
2018-12-30T15:25:32.499Z,82.10
2018-12-30T15:28:00.801Z,81.90
2018-12-30T15:30:29.268Z,81.70
2018-12-30T15:32:57.619Z,81.50
2018-12-30T15:35:26.023Z,81.40
2018-12-30T15:37:54.401Z,82.50
2018-12-30T15:40:22.808Z,81.70
2018-12-30T15:42:51.179Z,81.80
2018-12-30T15:45:19.582Z,82.10
2018-12-30T15:47:47.953Z,81.50
2018-12-30T15:50:16.379Z,81.30
2018-12-30T15:52:44.754Z,81.10
2018-12-30T15:55:19.433Z,80.90
2018-12-30T15:57:43.187Z,80.90
2018-12-30T16:00:11.560Z,80.70
2018-12-30T16:02:39.958Z,80.90
2018-12-30T16:05:08.362Z,80.70
2018-12-30T16:07:36.774Z,80.40
2018-12-30T16:10:07.586Z,80.30
2018-12-30T16:12:35.987Z,80.70
2018-12-30T16:15:05.495Z,80.30
2018-12-30T16:17:33.904Z,81.10
2018-12-30T16:20:02.305Z,80.30
2018-12-30T16:22:30.716Z,80.70
2018-12-30T16:24:59.094Z,80.90
2018-12-30T16:27:27.514Z,80.80
2018-12-30T16:29:55.890Z,81.30
2018-12-30T16:32:24.370Z,81.50
2018-12-30T16:34:52.744Z,82.20
2018-12-30T16:37:21.151Z,81.40
2018-12-30T16:39:49.540Z,81.90
2018-12-30T16:42:17.947Z,81.60
2018-12-30T16:44:46.315Z,81.50
2018-12-30T16:47:14.723Z,81.00
2018-12-30T16:49:43.031Z,81.30
2018-12-30T16:52:11.522Z,81.30
2018-12-30T16:54:39.911Z,81.50
2018-12-30T16:57:08.315Z,81.50
2018-12-30T16:59:36.712Z,81.90
2018-12-30T17:02:05.116Z,81.70
2018-12-30T17:04:33.511Z,82.30
2018-12-30T17:07:01.918Z,82.10
2018-12-30T17:09:30.290Z,83.00
2018-12-30T17:11:58.686Z,82.20
2018-12-30T17:14:27.059Z,81.90
2018-12-30T17:16:55.454Z,82.00
2018-12-30T17:19:23.926Z,82.50
2018-12-30T17:21:52.628Z,82.80
2018-12-30T17:24:21.059Z,83.10
2018-12-30T17:26:49.437Z,82.30
2018-12-30T17:29:17.838Z,82.60
2018-12-30T17:31:46.218Z,82.70
2018-12-30T17:34:14.636Z,82.60
2018-12-30T17:36:43.064Z,83.00
2018-12-30T17:39:11.498Z,83.20
2018-12-30T17:41:39.890Z,83.10
2018-12-30T17:44:08.307Z,83.10
2018-12-30T17:46:36.671Z,83.40
2018-12-30T17:49:05.071Z,83.70
2018-12-30T17:51:33.394Z,84.20
2018-12-30T17:54:01.811Z,84.50
2018-12-30T17:56:30.184Z,84.00
2018-12-30T17:58:58.587Z,83.80
2018-12-30T18:01:26.965Z,83.80
2018-12-30T18:03:55.359Z,84.10
2018-12-30T18:06:23.738Z,83.50
2018-12-30T18:08:52.156Z,83.50
2018-12-30T18:11:20.527Z,83.70
2018-12-30T18:13:48.944Z,84.30
2018-12-30T18:16:17.315Z,83.90
2018-12-30T18:18:45.713Z,83.40
2018-12-30T18:21:14.086Z,83.40
2018-12-30T18:23:42.488Z,83.30
2018-12-30T18:26:10.873Z,83.40
2018-12-30T18:28:39.295Z,83.20
2018-12-30T18:31:07.679Z,83.30
2018-12-30T18:33:36.085Z,83.60
2018-12-30T18:36:04.479Z,83.50
2018-12-30T18:38:32.880Z,83.50
2018-12-30T18:41:01.260Z,83.90
2018-12-30T18:43:29.670Z,83.40
2018-12-30T18:45:58.058Z,83.60
2018-12-30T18:48:26.459Z,83.60
2018-12-30T18:50:54.837Z,83.50
2018-12-30T18:53:23.206Z,83.30
2018-12-30T18:55:51.610Z,83.30
2018-12-30T18:58:19.977Z,83.80
2018-12-30T19:00:48.388Z,84.10
2018-12-30T19:03:16.770Z,84.10
2018-12-30T19:05:45.188Z,84.30
2018-12-30T19:08:13.550Z,83.20
2018-12-30T19:10:41.882Z,82.80
2018-12-30T19:13:10.258Z,82.40
2018-12-30T19:15:38.658Z,82.10
2018-12-30T19:18:06.964Z,82.30
2018-12-30T19:20:35.939Z,82.30
2018-12-30T19:23:04.352Z,81.50
2018-12-30T19:25:32.760Z,81.80
2018-12-30T19:28:01.148Z,81.70
2018-12-30T19:30:29.621Z,82.40
2018-12-30T19:32:57.981Z,82.80
2018-12-30T19:35:26.398Z,83.80
2018-12-30T19:37:54.785Z,83.80
2018-12-30T19:40:23.212Z,83.90
2018-12-30T19:42:51.602Z,84.10
2018-12-30T19:45:20.032Z,84.00
2018-12-30T19:47:48.387Z,83.90
2018-12-30T19:50:16.793Z,84.40
2018-12-30T19:52:45.196Z,84.90
2018-12-30T19:55:13.594Z,84.80
2018-12-30T19:57:41.984Z,84.40
2018-12-30T20:00:10.944Z,84.70
2018-12-30T20:02:39.342Z,84.40
2018-12-30T20:05:07.798Z,84.40
2018-12-30T20:07:36.216Z,83.90
2018-12-30T20:10:05.947Z,84.40
2018-12-30T20:12:34.331Z,84.20
2018-12-30T20:15:02.734Z,84.50
2018-12-30T20:17:31.283Z,84.20
2018-12-30T20:19:59.694Z,84.40
2018-12-30T20:22:28.071Z,85.40
2018-12-30T20:24:56.442Z,85.90
2018-12-30T20:27:24.856Z,85.90
2018-12-30T20:29:53.250Z,85.50
2018-12-30T20:32:21.668Z,85.30
2018-12-30T20:34:50.041Z,85.10
2018-12-30T20:37:18.464Z,85.30
2018-12-30T20:39:46.824Z,85.70
2018-12-30T20:42:15.231Z,85.40
2018-12-30T20:44:43.617Z,85.10
2018-12-30T20:47:12.025Z,85.30
2018-12-30T20:49:40.400Z,85.60
2018-12-30T20:52:08.808Z,85.20
2018-12-30T20:54:37.179Z,84.80
2018-12-30T20:57:05.587Z,85.30
2018-12-30T20:59:33.964Z,84.80
2018-12-30T21:02:02.370Z,85.00
2018-12-30T21:04:30.744Z,85.30
2018-12-30T21:06:59.147Z,84.90
2018-12-30T21:09:27.528Z,84.60
2018-12-30T21:11:55.929Z,85.20
2018-12-30T21:14:24.313Z,84.80
2018-12-30T21:16:52.749Z,85.60
2018-12-30T21:19:21.146Z,84.10
2018-12-30T21:21:49.553Z,84.40
2018-12-30T21:24:17.948Z,84.80
2018-12-30T21:26:46.351Z,85.00
2018-12-30T21:29:14.744Z,84.70
2018-12-30T21:31:43.164Z,84.70
2018-12-30T21:34:11.530Z,84.70
2018-12-30T21:36:39.964Z,85.00
2018-12-30T21:39:08.340Z,84.90
2018-12-30T21:41:36.778Z,85.20
2018-12-30T21:44:05.158Z,85.10
2018-12-30T21:46:33.524Z,85.20
2018-12-30T21:49:01.939Z,85.30
2018-12-30T21:51:30.317Z,85.40
2018-12-30T21:53:58.723Z,85.70
2018-12-30T21:56:27.176Z,85.50
2018-12-30T21:58:55.607Z,85.40
2018-12-30T22:01:24.120Z,85.80
2018-12-30T22:03:52.554Z,86.00
2018-12-30T22:06:21.030Z,85.70
2018-12-30T22:08:49.439Z,85.80
2018-12-30T22:11:17.829Z,85.70
2018-12-30T22:13:46.246Z,85.50
2018-12-30T22:16:14.627Z,85.30
2018-12-30T22:18:43.050Z,85.40
2018-12-30T22:21:13.384Z,85.50
2018-12-30T22:23:41.801Z,85.70
2018-12-30T22:26:10.180Z,86.00
2018-12-30T22:28:38.596Z,86.00
2018-12-30T22:31:06.965Z,86.10
2018-12-30T22:33:35.296Z,85.50
2018-12-30T22:36:03.667Z,85.50
2018-12-30T22:38:32.348Z,85.80
2018-12-30T22:41:00.729Z,85.70
2018-12-30T22:43:29.134Z,85.80
2018-12-30T22:45:57.605Z,85.70
2018-12-30T22:48:26.022Z,86.90
2018-12-30T22:50:54.400Z,86.10
2018-12-30T22:53:22.935Z,86.70
2018-12-30T22:55:51.324Z,86.70
2018-12-30T22:58:19.724Z,86.90
2018-12-30T23:00:52.668Z,87.00
2018-12-30T23:03:21.071Z,87.10
2018-12-30T23:05:49.438Z,87.80
2018-12-30T23:08:17.840Z,87.20
2018-12-30T23:10:47.856Z,86.60
2018-12-30T23:13:16.461Z,86.80
2018-12-30T23:15:44.828Z,87.50
2018-12-30T23:18:13.204Z,87.70
2018-12-30T23:20:42.926Z,87.70
2018-12-30T23:23:11.388Z,87.40
2018-12-30T23:25:39.798Z,87.80
2018-12-30T23:28:08.178Z,87.70
2018-12-30T23:30:36.588Z,87.30
2018-12-30T23:33:04.958Z,87.50
2018-12-30T23:35:34.260Z,87.80
2018-12-30T23:38:02.644Z,87.90
2018-12-30T23:40:31.060Z,87.90
2018-12-30T23:42:59.434Z,87.20
2018-12-30T23:45:27.861Z,87.80
2018-12-30T23:47:56.222Z,87.30
2018-12-30T23:50:24.622Z,87.50
2018-12-30T23:52:53.001Z,87.90
2018-12-30T23:55:21.405Z,88.20
2018-12-30T23:57:49.783Z,88.50
